sensor_id;sensor_type;location;lat;lon;timestamp;P1;durP1;ratioP1;P2;durP2;ratioP2
71696;SDS011;59528;59.082;37.926;2022-09-09T00:04:22;1.83;;;0.80;;
71696;SDS011;59528;59.082;37.926;2022-09-09T00:07:00;3.40;;;1.10;;
71696;SDS011;59528;59.082;37.926;2022-09-09T00:09:29;3.07;;;1.43;;
71696;SDS011;59528;59.082;37.926;2022-09-09T00:12:04;4.87;;;1.43;;
71696;SDS011;59528;59.082;37.926;2022-09-09T00:15:33;3.43;;;1.33;;
71696;SDS011;59528;59.082;37.926;2022-09-09T00:22:20;6.57;;;1.50;;
71696;SDS011;59528;59.082;37.926;2022-09-09T00:27:34;3.27;;;1.53;;
71696;SDS011;59528;59.082;37.926;2022-09-09T00:30:14;3.13;;;1.40;;
71696;SDS011;59528;59.082;37.926;2022-09-09T00:32:42;3.73;;;1.30;;
71696;SDS011;59528;59.082;37.926;2022-09-09T00:35:29;4.80;;;1.80;;
71696;SDS011;59528;59.082;37.926;2022-09-09T00:37:57;3.27;;;1.80;;
71696;SDS011;59528;59.082;37.926;2022-09-09T00:40:35;3.27;;;1.30;;
71696;SDS011;59528;59.082;37.926;2022-09-09T00:48:09;4.90;;;2.03;;
71696;SDS011;59528;59.082;37.926;2022-09-09T00:50:39;7.13;;;2.80;;
71696;SDS011;59528;59.082;37.926;2022-09-09T00:58:06;12.90;;;3.40;;
71696;SDS011;59528;59.082;37.926;2022-09-09T01:06:16;9.47;;;3.90;;
71696;SDS011;59528;59.082;37.926;2022-09-09T01:11:22;9.03;;;3.70;;
71696;SDS011;59528;59.082;37.926;2022-09-09T01:13:49;12.70;;;4.30;;
71696;SDS011;59528;59.082;37.926;2022-09-09T01:16:18;10.73;;;4.13;;
71696;SDS011;59528;59.082;37.926;2022-09-09T01:18:45;13.17;;;4.27;;
71696;SDS011;59528;59.082;37.926;2022-09-09T01:28:57;12.13;;;5.07;;
71696;SDS011;59528;59.082;37.926;2022-09-09T01:31:37;19.10;;;5.07;;
71696;SDS011;59528;59.082;37.926;2022-09-09T01:34:14;15.27;;;4.50;;
71696;SDS011;59528;59.082;37.926;2022-09-09T01:36:49;12.57;;;5.20;;
71696;SDS011;59528;59.082;37.926;2022-09-09T01:39:17;17.77;;;4.57;;
71696;SDS011;59528;59.082;37.926;2022-09-09T01:41:44;13.67;;;4.67;;
71696;SDS011;59528;59.082;37.926;2022-09-09T01:44:12;16.33;;;5.67;;
71696;SDS011;59528;59.082;37.926;2022-09-09T01:46:40;12.80;;;5.20;;
71696;SDS011;59528;59.082;37.926;2022-09-09T01:49:12;21.33;;;6.27;;
71696;SDS011;59528;59.082;37.926;2022-09-09T01:51:38;25.73;;;6.00;;
71696;SDS011;59528;59.082;37.926;2022-09-09T01:54:07;17.20;;;5.47;;
71696;SDS011;59528;59.082;37.926;2022-09-09T01:56:39;18.20;;;5.37;;
71696;SDS011;59528;59.082;37.926;2022-09-09T02:01:49;18.03;;;5.20;;
71696;SDS011;59528;59.082;37.926;2022-09-09T02:06:46;12.97;;;4.80;;
71696;SDS011;59528;59.082;37.926;2022-09-09T02:09:23;14.07;;;4.40;;
71696;SDS011;59528;59.082;37.926;2022-09-09T02:11:52;13.63;;;4.33;;
71696;SDS011;59528;59.082;37.926;2022-09-09T02:14:30;14.87;;;3.30;;
71696;SDS011;59528;59.082;37.926;2022-09-09T02:17:01;14.97;;;3.60;;
71696;SDS011;59528;59.082;37.926;2022-09-09T02:19:46;14.57;;;3.40;;
71696;SDS011;59528;59.082;37.926;2022-09-09T02:22:26;12.50;;;3.20;;
71696;SDS011;59528;59.082;37.926;2022-09-09T02:24:53;13.17;;;3.97;;
71696;SDS011;59528;59.082;37.926;2022-09-09T02:27:25;22.77;;;4.67;;
71696;SDS011;59528;59.082;37.926;2022-09-09T02:29:51;14.77;;;4.33;;
71696;SDS011;59528;59.082;37.926;2022-09-09T02:32:24;14.40;;;3.60;;
71696;SDS011;59528;59.082;37.926;2022-09-09T02:34:55;14.87;;;3.67;;
71696;SDS011;59528;59.082;37.926;2022-09-09T02:37:23;7.70;;;3.17;;
71696;SDS011;59528;59.082;37.926;2022-09-09T02:39:54;9.73;;;3.63;;
71696;SDS011;59528;59.082;37.926;2022-09-09T02:42:21;13.53;;;3.50;;
71696;SDS011;59528;59.082;37.926;2022-09-09T02:44:47;17.43;;;4.17;;
71696;SDS011;59528;59.082;37.926;2022-09-09T02:48:14;12.53;;;4.47;;
71696;SDS011;59528;59.082;37.926;2022-09-09T02:50:19;18.80;;;4.53;;
71696;SDS011;59528;59.082;37.926;2022-09-09T02:55:24;18.63;;;5.40;;
71696;SDS011;59528;59.082;37.926;2022-09-09T02:57:56;13.90;;;5.47;;
71696;SDS011;59528;59.082;37.926;2022-09-09T03:00:26;17.23;;;6.00;;
71696;SDS011;59528;59.082;37.926;2022-09-09T03:02:54;19.17;;;5.83;;
71696;SDS011;59528;59.082;37.926;2022-09-09T03:05:20;17.37;;;5.93;;
71696;SDS011;59528;59.082;37.926;2022-09-09T03:07:46;19.63;;;5.97;;
71696;SDS011;59528;59.082;37.926;2022-09-09T03:10:13;26.97;;;6.80;;
71696;SDS011;59528;59.082;37.926;2022-09-09T03:12:38;12.40;;;5.53;;
71696;SDS011;59528;59.082;37.926;2022-09-09T03:15:05;14.30;;;5.00;;
71696;SDS011;59528;59.082;37.926;2022-09-09T03:17:31;16.30;;;5.10;;
71696;SDS011;59528;59.082;37.926;2022-09-09T03:19:57;19.53;;;4.97;;
71696;SDS011;59528;59.082;37.926;2022-09-09T03:22:24;14.83;;;4.47;;
71696;SDS011;59528;59.082;37.926;2022-09-09T03:24:51;14.73;;;3.90;;
71696;SDS011;59528;59.082;37.926;2022-09-09T03:27:17;12.90;;;4.53;;
71696;SDS011;59528;59.082;37.926;2022-09-09T03:29:43;11.73;;;3.37;;
71696;SDS011;59528;59.082;37.926;2022-09-09T03:32:13;9.43;;;3.70;;
71696;SDS011;59528;59.082;37.926;2022-09-09T03:34:42;7.87;;;3.37;;
71696;SDS011;59528;59.082;37.926;2022-09-09T03:37:10;7.77;;;3.07;;
71696;SDS011;59528;59.082;37.926;2022-09-09T03:39:36;9.60;;;3.07;;
71696;SDS011;59528;59.082;37.926;2022-09-09T03:42:03;12.17;;;2.97;;
71696;SDS011;59528;59.082;37.926;2022-09-09T03:44:30;13.23;;;2.80;;
71696;SDS011;59528;59.082;37.926;2022-09-09T03:46:55;13.83;;;3.33;;
71696;SDS011;59528;59.082;37.926;2022-09-09T03:49:21;8.00;;;2.33;;
71696;SDS011;59528;59.082;37.926;2022-09-09T03:51:48;13.17;;;2.40;;
71696;SDS011;59528;59.082;37.926;2022-09-09T03:54:14;10.20;;;2.03;;
71696;SDS011;59528;59.082;37.926;2022-09-09T03:56:39;14.40;;;2.20;;
71696;SDS011;59528;59.082;37.926;2022-09-09T03:59:08;8.30;;;2.10;;
71696;SDS011;59528;59.082;37.926;2022-09-09T04:01:37;10.63;;;2.13;;
71696;SDS011;59528;59.082;37.926;2022-09-09T04:04:02;10.03;;;2.40;;
71696;SDS011;59528;59.082;37.926;2022-09-09T04:06:28;9.73;;;2.50;;
71696;SDS011;59528;59.082;37.926;2022-09-09T04:08:55;12.43;;;2.50;;
71696;SDS011;59528;59.082;37.926;2022-09-09T04:11:21;11.00;;;2.30;;
71696;SDS011;59528;59.082;37.926;2022-09-09T04:13:49;10.33;;;2.77;;
71696;SDS011;59528;59.082;37.926;2022-09-09T04:16:17;13.33;;;2.73;;
71696;SDS011;59528;59.082;37.926;2022-09-09T04:18:42;19.83;;;3.03;;
71696;SDS011;59528;59.082;37.926;2022-09-09T04:21:09;10.63;;;3.00;;
71696;SDS011;59528;59.082;37.926;2022-09-09T04:23:35;13.97;;;3.33;;
71696;SDS011;59528;59.082;37.926;2022-09-09T04:26:01;25.27;;;3.47;;
71696;SDS011;59528;59.082;37.926;2022-09-09T04:28:29;15.63;;;3.50;;
71696;SDS011;59528;59.082;37.926;2022-09-09T04:30:55;15.03;;;3.90;;
71696;SDS011;59528;59.082;37.926;2022-09-09T04:33:24;17.30;;;3.90;;
71696;SDS011;59528;59.082;37.926;2022-09-09T04:35:52;21.63;;;4.07;;
71696;SDS011;59528;59.082;37.926;2022-09-09T04:38:22;20.97;;;3.67;;
71696;SDS011;59528;59.082;37.926;2022-09-09T04:40:49;18.70;;;4.40;;
71696;SDS011;59528;59.082;37.926;2022-09-09T04:43:17;13.23;;;3.73;;
71696;SDS011;59528;59.082;37.926;2022-09-09T04:45:47;18.37;;;4.60;;
71696;SDS011;59528;59.082;37.926;2022-09-09T04:48:12;18.47;;;4.50;;
71696;SDS011;59528;59.082;37.926;2022-09-09T04:50:38;16.93;;;4.50;;
71696;SDS011;59528;59.082;37.926;2022-09-09T04:53:04;17.53;;;4.67;;
71696;SDS011;59528;59.082;37.926;2022-09-09T04:55:31;16.80;;;4.40;;
71696;SDS011;59528;59.082;37.926;2022-09-09T04:57:56;21.93;;;4.27;;
71696;SDS011;59528;59.082;37.926;2022-09-09T05:00:23;17.67;;;3.87;;
71696;SDS011;59528;59.082;37.926;2022-09-09T05:02:49;24.87;;;4.07;;
71696;SDS011;59528;59.082;37.926;2022-09-09T05:05:16;19.50;;;3.83;;
71696;SDS011;59528;59.082;37.926;2022-09-09T05:07:45;16.70;;;3.83;;
71696;SDS011;59528;59.082;37.926;2022-09-09T05:10:12;11.43;;;3.83;;
71696;SDS011;59528;59.082;37.926;2022-09-09T05:12:38;14.73;;;3.60;;
71696;SDS011;59528;59.082;37.926;2022-09-09T05:15:04;16.27;;;3.47;;
71696;SDS011;59528;59.082;37.926;2022-09-09T05:17:30;17.37;;;3.80;;
71696;SDS011;59528;59.082;37.926;2022-09-09T05:19:56;16.73;;;3.30;;
71696;SDS011;59528;59.082;37.926;2022-09-09T05:22:22;17.60;;;3.23;;
71696;SDS011;59528;59.082;37.926;2022-09-09T05:24:49;17.33;;;3.50;;
71696;SDS011;59528;59.082;37.926;2022-09-09T05:27:18;13.77;;;3.43;;
71696;SDS011;59528;59.082;37.926;2022-09-09T05:29:46;17.30;;;4.07;;
71696;SDS011;59528;59.082;37.926;2022-09-09T05:32:13;15.40;;;3.03;;
71696;SDS011;59528;59.082;37.926;2022-09-09T05:34:41;15.00;;;3.03;;
71696;SDS011;59528;59.082;37.926;2022-09-09T05:37:07;20.57;;;3.20;;
71696;SDS011;59528;59.082;37.926;2022-09-09T05:39:34;16.53;;;3.03;;
71696;SDS011;59528;59.082;37.926;2022-09-09T05:42:02;14.00;;;2.80;;
71696;SDS011;59528;59.082;37.926;2022-09-09T05:44:30;18.97;;;3.03;;
71696;SDS011;59528;59.082;37.926;2022-09-09T05:46:57;16.50;;;3.00;;
71696;SDS011;59528;59.082;37.926;2022-09-09T05:49:23;18.57;;;3.17;;
71696;SDS011;59528;59.082;37.926;2022-09-09T05:51:49;23.63;;;2.97;;
71696;SDS011;59528;59.082;37.926;2022-09-09T05:54:17;11.73;;;3.30;;
71696;SDS011;59528;59.082;37.926;2022-09-09T05:56:47;11.97;;;2.83;;
71696;SDS011;59528;59.082;37.926;2022-09-09T05:59:15;14.27;;;2.90;;
71696;SDS011;59528;59.082;37.926;2022-09-09T06:01:41;21.50;;;3.27;;
71696;SDS011;59528;59.082;37.926;2022-09-09T06:04:12;16.67;;;4.07;;
71696;SDS011;59528;59.082;37.926;2022-09-09T06:06:39;9.63;;;2.13;;
71696;SDS011;59528;59.082;37.926;2022-09-09T06:09:11;17.10;;;3.07;;
71696;SDS011;59528;59.082;37.926;2022-09-09T06:11:41;13.97;;;2.80;;
71696;SDS011;59528;59.082;37.926;2022-09-09T06:14:07;17.20;;;3.00;;
71696;SDS011;59528;59.082;37.926;2022-09-09T06:16:33;11.17;;;2.87;;
71696;SDS011;59528;59.082;37.926;2022-09-09T06:18:59;15.00;;;3.60;;
71696;SDS011;59528;59.082;37.926;2022-09-09T06:21:31;14.93;;;3.23;;
71696;SDS011;59528;59.082;37.926;2022-09-09T06:23:59;18.33;;;3.70;;
71696;SDS011;59528;59.082;37.926;2022-09-09T06:26:26;11.87;;;3.23;;
71696;SDS011;59528;59.082;37.926;2022-09-09T06:28:52;16.73;;;3.77;;
71696;SDS011;59528;59.082;37.926;2022-09-09T06:31:19;16.60;;;4.27;;
71696;SDS011;59528;59.082;37.926;2022-09-09T06:33:50;12.90;;;3.90;;
71696;SDS011;59528;59.082;37.926;2022-09-09T06:36:17;27.70;;;4.43;;
71696;SDS011;59528;59.082;37.926;2022-09-09T06:38:43;24.83;;;3.93;;
71696;SDS011;59528;59.082;37.926;2022-09-09T06:41:12;12.53;;;3.93;;
71696;SDS011;59528;59.082;37.926;2022-09-09T06:43:39;16.57;;;3.30;;
71696;SDS011;59528;59.082;37.926;2022-09-09T06:46:06;12.53;;;3.30;;
71696;SDS011;59528;59.082;37.926;2022-09-09T06:48:34;10.90;;;3.30;;
71696;SDS011;59528;59.082;37.926;2022-09-09T06:51:10;10.70;;;3.60;;
71696;SDS011;59528;59.082;37.926;2022-09-09T06:53:37;17.73;;;3.47;;
71696;SDS011;59528;59.082;37.926;2022-09-09T06:58:45;11.17;;;3.10;;
71696;SDS011;59528;59.082;37.926;2022-09-09T07:01:17;9.77;;;3.07;;
71696;SDS011;59528;59.082;37.926;2022-09-09T07:03:48;6.27;;;2.87;;
71696;SDS011;59528;59.082;37.926;2022-09-09T07:06:21;10.70;;;2.53;;
71696;SDS011;59528;59.082;37.926;2022-09-09T07:08:53;8.23;;;1.90;;
71696;SDS011;59528;59.082;37.926;2022-09-09T07:11:22;8.90;;;1.50;;
71696;SDS011;59528;59.082;37.926;2022-09-09T07:13:48;8.37;;;1.20;;
71696;SDS011;59528;59.082;37.926;2022-09-09T07:16:15;4.00;;;1.20;;
71696;SDS011;59528;59.082;37.926;2022-09-09T07:18:41;4.00;;;1.27;;
71696;SDS011;59528;59.082;37.926;2022-09-09T07:21:08;6.00;;;1.53;;
71696;SDS011;59528;59.082;37.926;2022-09-09T07:23:34;7.53;;;1.57;;
71696;SDS011;59528;59.082;37.926;2022-09-09T07:26:10;5.03;;;1.50;;
71696;SDS011;59528;59.082;37.926;2022-09-09T07:28:36;4.00;;;1.60;;
71696;SDS011;59528;59.082;37.926;2022-09-09T07:31:02;3.23;;;1.30;;
71696;SDS011;59528;59.082;37.926;2022-09-09T07:33:29;3.27;;;0.80;;
71696;SDS011;59528;59.082;37.926;2022-09-09T07:36:18;3.60;;;1.10;;
71696;SDS011;59528;59.082;37.926;2022-09-09T07:38:47;4.00;;;0.90;;
71696;SDS011;59528;59.082;37.926;2022-09-09T07:41:15;3.77;;;1.30;;
71696;SDS011;59528;59.082;37.926;2022-09-09T07:43:43;7.37;;;1.33;;
71696;SDS011;59528;59.082;37.926;2022-09-09T07:46:10;4.97;;;1.60;;
71696;SDS011;59528;59.082;37.926;2022-09-09T07:48:37;3.77;;;1.40;;
71696;SDS011;59528;59.082;37.926;2022-09-09T07:51:08;3.53;;;1.30;;
71696;SDS011;59528;59.082;37.926;2022-09-09T07:53:35;3.93;;;1.57;;
71696;SDS011;59528;59.082;37.926;2022-09-09T07:56:02;3.23;;;1.23;;
71696;SDS011;59528;59.082;37.926;2022-09-09T07:58:30;3.53;;;1.20;;
71696;SDS011;59528;59.082;37.926;2022-09-09T08:00:56;2.63;;;1.27;;
71696;SDS011;59528;59.082;37.926;2022-09-09T08:03:23;1.87;;;1.00;;
71696;SDS011;59528;59.082;37.926;2022-09-09T08:05:49;3.00;;;1.00;;
71696;SDS011;59528;59.082;37.926;2022-09-09T08:08:15;2.10;;;0.73;;
71696;SDS011;59528;59.082;37.926;2022-09-09T08:10:42;1.97;;;0.70;;
71696;SDS011;59528;59.082;37.926;2022-09-09T08:13:08;2.93;;;0.87;;
71696;SDS011;59528;59.082;37.926;2022-09-09T08:15:35;1.30;;;0.70;;
71696;SDS011;59528;59.082;37.926;2022-09-09T08:18:00;4.57;;;0.90;;
71696;SDS011;59528;59.082;37.926;2022-09-09T08:20:28;3.00;;;0.70;;
71696;SDS011;59528;59.082;37.926;2022-09-09T08:22:55;1.67;;;0.80;;
71696;SDS011;59528;59.082;37.926;2022-09-09T08:25:20;0.80;;;0.60;;
71696;SDS011;59528;59.082;37.926;2022-09-09T08:27:46;2.13;;;0.80;;
71696;SDS011;59528;59.082;37.926;2022-09-09T08:30:13;8.77;;;0.90;;
71696;SDS011;59528;59.082;37.926;2022-09-09T08:32:49;2.10;;;0.70;;
71696;SDS011;59528;59.082;37.926;2022-09-09T08:35:16;2.20;;;0.60;;
71696;SDS011;59528;59.082;37.926;2022-09-09T08:37:43;1.13;;;0.50;;
71696;SDS011;59528;59.082;37.926;2022-09-09T08:40:11;2.10;;;0.63;;
71696;SDS011;59528;59.082;37.926;2022-09-09T08:42:47;2.33;;;1.17;;
71696;SDS011;59528;59.082;37.926;2022-09-09T08:50:25;4.63;;;0.90;;
71696;SDS011;59528;59.082;37.926;2022-09-09T08:55:39;1.90;;;0.77;;
71696;SDS011;59528;59.082;37.926;2022-09-09T09:00:42;2.43;;;0.70;;
71696;SDS011;59528;59.082;37.926;2022-09-09T09:03:15;1.43;;;0.63;;
71696;SDS011;59528;59.082;37.926;2022-09-09T09:08:46;2.17;;;0.87;;
71696;SDS011;59528;59.082;37.926;2022-09-09T09:11:16;4.67;;;1.00;;
71696;SDS011;59528;59.082;37.926;2022-09-09T09:18:43;2.90;;;1.10;;
71696;SDS011;59528;59.082;37.926;2022-09-09T09:21:52;3.03;;;1.10;;
71696;SDS011;59528;59.082;37.926;2022-09-09T09:23:59;2.77;;;0.70;;
71696;SDS011;59528;59.082;37.926;2022-09-09T09:26:30;1.90;;;0.67;;
71696;SDS011;59528;59.082;37.926;2022-09-09T09:28:57;3.13;;;0.90;;
71696;SDS011;59528;59.082;37.926;2022-09-09T09:31:25;1.70;;;0.80;;
71696;SDS011;59528;59.082;37.926;2022-09-09T09:33:53;1.53;;;0.80;;
71696;SDS011;59528;59.082;37.926;2022-09-09T09:36:33;2.17;;;1.03;;
71696;SDS011;59528;59.082;37.926;2022-09-09T09:39:00;5.27;;;1.40;;
71696;SDS011;59528;59.082;37.926;2022-09-09T09:43:55;2.20;;;1.10;;
71696;SDS011;59528;59.082;37.926;2022-09-09T09:46:23;5.60;;;1.40;;
71696;SDS011;59528;59.082;37.926;2022-09-09T09:49:00;8.50;;;1.10;;
71696;SDS011;59528;59.082;37.926;2022-09-09T09:51:27;2.90;;;1.00;;
71696;SDS011;59528;59.082;37.926;2022-09-09T09:53:55;4.43;;;0.90;;
71696;SDS011;59528;59.082;37.926;2022-09-09T09:56:31;3.63;;;1.13;;
71696;SDS011;59528;59.082;37.926;2022-09-09T09:58:59;4.87;;;1.10;;
71696;SDS011;59528;59.082;37.926;2022-09-09T10:01:34;3.60;;;1.03;;
71696;SDS011;59528;59.082;37.926;2022-09-09T10:06:46;5.87;;;1.40;;
71696;SDS011;59528;59.082;37.926;2022-09-09T10:09:24;2.80;;;1.50;;
71696;SDS011;59528;59.082;37.926;2022-09-09T10:15:00;4.53;;;1.57;;
71696;SDS011;59528;59.082;37.926;2022-09-09T10:22:26;7.00;;;2.13;;
71696;SDS011;59528;59.082;37.926;2022-09-09T10:25:04;5.73;;;2.60;;
71696;SDS011;59528;59.082;37.926;2022-09-09T10:30:49;9.23;;;2.23;;
71696;SDS011;59528;59.082;37.926;2022-09-09T10:35:56;7.53;;;2.00;;
71696;SDS011;59528;59.082;37.926;2022-09-09T10:38:42;5.43;;;1.90;;
71696;SDS011;59528;59.082;37.926;2022-09-09T10:41:11;5.83;;;1.60;;
71696;SDS011;59528;59.082;37.926;2022-09-09T10:51:40;7.70;;;1.50;;
71696;SDS011;59528;59.082;37.926;2022-09-09T10:56:37;8.23;;;1.80;;
71696;SDS011;59528;59.082;37.926;2022-09-09T10:59:16;8.50;;;1.40;;
71696;SDS011;59528;59.082;37.926;2022-09-09T11:01:45;4.57;;;1.10;;
71696;SDS011;59528;59.082;37.926;2022-09-09T11:04:17;9.10;;;1.40;;
71696;SDS011;59528;59.082;37.926;2022-09-09T11:06:45;4.37;;;1.27;;
71696;SDS011;59528;59.082;37.926;2022-09-09T11:09:14;4.87;;;1.30;;
71696;SDS011;59528;59.082;37.926;2022-09-09T11:11:45;2.10;;;0.80;;
71696;SDS011;59528;59.082;37.926;2022-09-09T11:14:18;4.50;;;1.10;;
71696;SDS011;59528;59.082;37.926;2022-09-09T11:16:48;5.77;;;1.37;;
71696;SDS011;59528;59.082;37.926;2022-09-09T11:21:49;6.10;;;0.80;;
71696;SDS011;59528;59.082;37.926;2022-09-09T11:26:51;5.37;;;0.90;;
71696;SDS011;59528;59.082;37.926;2022-09-09T11:29:25;4.27;;;1.10;;
71696;SDS011;59528;59.082;37.926;2022-09-09T11:34:37;7.77;;;1.20;;
71696;SDS011;59528;59.082;37.926;2022-09-09T11:42:06;9.60;;;1.60;;
71696;SDS011;59528;59.082;37.926;2022-09-09T11:44:32;9.30;;;1.30;;
71696;SDS011;59528;59.082;37.926;2022-09-09T11:46:57;2.87;;;1.03;;
71696;SDS011;59528;59.082;37.926;2022-09-09T11:49:28;3.33;;;1.00;;
71696;SDS011;59528;59.082;37.926;2022-09-09T11:51:54;2.83;;;1.10;;
71696;SDS011;59528;59.082;37.926;2022-09-09T11:54:26;4.70;;;1.40;;
71696;SDS011;59528;59.082;37.926;2022-09-09T11:56:55;2.67;;;1.13;;
71696;SDS011;59528;59.082;37.926;2022-09-09T12:01:58;2.90;;;1.00;;
71696;SDS011;59528;59.082;37.926;2022-09-09T12:12:07;1.20;;;1.00;;
71696;SDS011;59528;59.082;37.926;2022-09-09T12:14:37;2.07;;;0.70;;
71696;SDS011;59528;59.082;37.926;2022-09-09T12:19:41;1.33;;;0.70;;
71696;SDS011;59528;59.082;37.926;2022-09-09T12:22:11;2.27;;;0.87;;
71696;SDS011;59528;59.082;37.926;2022-09-09T12:24:47;2.77;;;0.90;;
71696;SDS011;59528;59.082;37.926;2022-09-09T12:27:25;0.90;;;0.50;;
71696;SDS011;59528;59.082;37.926;2022-09-09T12:29:59;1.00;;;0.73;;
71696;SDS011;59528;59.082;37.926;2022-09-09T12:32:27;2.20;;;0.77;;
71696;SDS011;59528;59.082;37.926;2022-09-09T12:34:55;2.67;;;0.63;;
71696;SDS011;59528;59.082;37.926;2022-09-09T12:40:17;2.70;;;0.60;;
71696;SDS011;59528;59.082;37.926;2022-09-09T12:42:44;1.00;;;0.60;;
71696;SDS011;59528;59.082;37.926;2022-09-09T12:45:20;1.30;;;0.60;;
71696;SDS011;59528;59.082;37.926;2022-09-09T12:50:15;3.47;;;0.50;;
71696;SDS011;59528;59.082;37.926;2022-09-09T12:52:42;1.07;;;0.50;;
71696;SDS011;59528;59.082;37.926;2022-09-09T12:55:15;0.90;;;0.40;;
71696;SDS011;59528;59.082;37.926;2022-09-09T12:57:42;3.10;;;0.60;;
71696;SDS011;59528;59.082;37.926;2022-09-09T13:00:13;1.67;;;0.40;;
71696;SDS011;59528;59.082;37.926;2022-09-09T13:02:46;1.13;;;0.47;;
71696;SDS011;59528;59.082;37.926;2022-09-09T13:05:14;0.60;;;0.37;;
71696;SDS011;59528;59.082;37.926;2022-09-09T13:07:41;1.10;;;0.60;;
71696;SDS011;59528;59.082;37.926;2022-09-09T13:10:10;1.13;;;0.60;;
71696;SDS011;59528;59.082;37.926;2022-09-09T13:12:37;2.10;;;0.67;;
71696;SDS011;59528;59.082;37.926;2022-09-09T13:15:03;0.90;;;0.33;;
71696;SDS011;59528;59.082;37.926;2022-09-09T13:17:30;1.33;;;0.40;;
71696;SDS011;59528;59.082;37.926;2022-09-09T13:19:58;3.70;;;0.40;;
71696;SDS011;59528;59.082;37.926;2022-09-09T13:22:35;0.30;;;0.30;;
71696;SDS011;59528;59.082;37.926;2022-09-09T13:25:06;0.60;;;0.30;;
71696;SDS011;59528;59.082;37.926;2022-09-09T13:27:34;2.97;;;0.57;;
71696;SDS011;59528;59.082;37.926;2022-09-09T13:30:19;0.57;;;0.40;;
71696;SDS011;59528;59.082;37.926;2022-09-09T13:32:45;0.60;;;0.30;;
71696;SDS011;59528;59.082;37.926;2022-09-09T13:35:29;2.13;;;0.40;;
71696;SDS011;59528;59.082;37.926;2022-09-09T13:37:55;1.03;;;0.50;;
71696;SDS011;59528;59.082;37.926;2022-09-09T13:40:22;1.30;;;0.40;;
71696;SDS011;59528;59.082;37.926;2022-09-09T13:42:52;1.53;;;0.40;;
71696;SDS011;59528;59.082;37.926;2022-09-09T13:45:25;1.40;;;0.20;;
71696;SDS011;59528;59.082;37.926;2022-09-09T13:47:55;1.27;;;0.40;;
71696;SDS011;59528;59.082;37.926;2022-09-09T13:50:35;4.13;;;0.30;;
71696;SDS011;59528;59.082;37.926;2022-09-09T13:53:01;0.97;;;0.40;;
71696;SDS011;59528;59.082;37.926;2022-09-09T13:55:27;2.23;;;0.43;;
71696;SDS011;59528;59.082;37.926;2022-09-09T13:57:54;1.53;;;0.33;;
71696;SDS011;59528;59.082;37.926;2022-09-09T14:00:21;1.67;;;0.50;;
71696;SDS011;59528;59.082;37.926;2022-09-09T14:02:48;0.97;;;0.60;;
71696;SDS011;59528;59.082;37.926;2022-09-09T14:05:14;4.97;;;0.80;;
71696;SDS011;59528;59.082;37.926;2022-09-09T14:07:41;1.83;;;0.80;;
71696;SDS011;59528;59.082;37.926;2022-09-09T14:10:07;1.67;;;0.70;;
71696;SDS011;59528;59.082;37.926;2022-09-09T14:12:33;2.10;;;0.90;;
71696;SDS011;59528;59.082;37.926;2022-09-09T14:14:58;3.50;;;0.80;;
71696;SDS011;59528;59.082;37.926;2022-09-09T14:17:27;5.13;;;0.70;;
71696;SDS011;59528;59.082;37.926;2022-09-09T14:19:56;2.43;;;0.70;;
71696;SDS011;59528;59.082;37.926;2022-09-09T14:22:22;2.20;;;0.50;;
71696;SDS011;59528;59.082;37.926;2022-09-09T14:24:48;2.47;;;0.57;;
71696;SDS011;59528;59.082;37.926;2022-09-09T14:27:14;2.50;;;0.53;;
71696;SDS011;59528;59.082;37.926;2022-09-09T14:29:41;2.50;;;0.40;;
71696;SDS011;59528;59.082;37.926;2022-09-09T14:32:06;3.57;;;0.60;;
71696;SDS011;59528;59.082;37.926;2022-09-09T14:34:32;2.90;;;0.50;;
71696;SDS011;59528;59.082;37.926;2022-09-09T14:36:58;0.80;;;0.40;;
71696;SDS011;59528;59.082;37.926;2022-09-09T14:39:24;1.23;;;0.50;;
71696;SDS011;59528;59.082;37.926;2022-09-09T14:41:49;0.90;;;0.40;;
71696;SDS011;59528;59.082;37.926;2022-09-09T14:44:15;0.87;;;0.50;;
71696;SDS011;59528;59.082;37.926;2022-09-09T14:46:41;1.53;;;0.40;;
71696;SDS011;59528;59.082;37.926;2022-09-09T14:49:08;0.93;;;0.40;;
71696;SDS011;59528;59.082;37.926;2022-09-09T14:51:33;2.27;;;0.50;;
71696;SDS011;59528;59.082;37.926;2022-09-09T14:54:00;2.63;;;0.50;;
71696;SDS011;59528;59.082;37.926;2022-09-09T14:56:42;1.80;;;0.50;;
71696;SDS011;59528;59.082;37.926;2022-09-09T14:59:18;2.30;;;0.40;;
71696;SDS011;59528;59.082;37.926;2022-09-09T15:01:44;1.60;;;0.40;;
71696;SDS011;59528;59.082;37.926;2022-09-09T15:04:10;4.60;;;0.40;;
71696;SDS011;59528;59.082;37.926;2022-09-09T15:06:36;1.77;;;0.40;;
71696;SDS011;59528;59.082;37.926;2022-09-09T15:09:04;1.83;;;0.50;;
71696;SDS011;59528;59.082;37.926;2022-09-09T15:11:34;2.40;;;0.50;;
71696;SDS011;59528;59.082;37.926;2022-09-09T15:14:03;0.70;;;0.30;;
71696;SDS011;59528;59.082;37.926;2022-09-09T15:16:29;0.70;;;0.40;;
71696;SDS011;59528;59.082;37.926;2022-09-09T15:18:55;0.70;;;0.40;;
71696;SDS011;59528;59.082;37.926;2022-09-09T15:21:22;1.03;;;0.50;;
71696;SDS011;59528;59.082;37.926;2022-09-09T15:23:48;1.80;;;0.40;;
71696;SDS011;59528;59.082;37.926;2022-09-09T15:26:15;4.40;;;0.60;;
71696;SDS011;59528;59.082;37.926;2022-09-09T15:28:41;1.60;;;0.43;;
71696;SDS011;59528;59.082;37.926;2022-09-09T15:31:12;1.27;;;0.50;;
71696;SDS011;59528;59.082;37.926;2022-09-09T15:33:51;1.17;;;0.40;;
71696;SDS011;59528;59.082;37.926;2022-09-09T15:36:18;2.87;;;0.30;;
71696;SDS011;59528;59.082;37.926;2022-09-09T15:38:44;2.67;;;0.60;;
71696;SDS011;59528;59.082;37.926;2022-09-09T15:41:11;2.90;;;0.40;;
71696;SDS011;59528;59.082;37.926;2022-09-09T15:43:37;0.83;;;0.60;;
71696;SDS011;59528;59.082;37.926;2022-09-09T15:48:54;1.17;;;0.60;;
71696;SDS011;59528;59.082;37.926;2022-09-09T15:51:21;1.03;;;0.50;;
71696;SDS011;59528;59.082;37.926;2022-09-09T15:53:48;0.53;;;0.30;;
71696;SDS011;59528;59.082;37.926;2022-09-09T15:56:14;1.17;;;0.60;;
71696;SDS011;59528;59.082;37.926;2022-09-09T15:58:40;1.37;;;1.13;;
71696;SDS011;59528;59.082;37.926;2022-09-09T16:01:06;0.60;;;0.47;;
71696;SDS011;59528;59.082;37.926;2022-09-09T16:03:38;0.83;;;0.30;;
71696;SDS011;59528;59.082;37.926;2022-09-09T16:06:04;0.77;;;0.40;;
71696;SDS011;59528;59.082;37.926;2022-09-09T16:08:41;1.67;;;0.40;;
71696;SDS011;59528;59.082;37.926;2022-09-09T16:11:14;0.87;;;0.50;;
71696;SDS011;59528;59.082;37.926;2022-09-09T16:13:43;0.33;;;0.30;;
71696;SDS011;59528;59.082;37.926;2022-09-09T16:16:10;0.57;;;0.43;;
71696;SDS011;59528;59.082;37.926;2022-09-09T16:18:37;1.10;;;0.37;;
71696;SDS011;59528;59.082;37.926;2022-09-09T16:21:03;0.60;;;0.40;;
71696;SDS011;59528;59.082;37.926;2022-09-09T16:23:31;3.70;;;0.30;;
71696;SDS011;59528;59.082;37.926;2022-09-09T16:25:56;0.70;;;0.47;;
71696;SDS011;59528;59.082;37.926;2022-09-09T16:28:22;0.67;;;0.33;;
71696;SDS011;59528;59.082;37.926;2022-09-09T16:30:48;1.93;;;0.60;;
71696;SDS011;59528;59.082;37.926;2022-09-09T16:33:14;0.70;;;0.50;;
71696;SDS011;59528;59.082;37.926;2022-09-09T16:35:42;1.83;;;0.73;;
71696;SDS011;59528;59.082;37.926;2022-09-09T16:38:08;1.60;;;1.00;;
71696;SDS011;59528;59.082;37.926;2022-09-09T16:40:34;1.90;;;0.63;;
71696;SDS011;59528;59.082;37.926;2022-09-09T16:43:00;5.10;;;1.30;;
71696;SDS011;59528;59.082;37.926;2022-09-09T16:45:26;4.23;;;0.97;;
71696;SDS011;59528;59.082;37.926;2022-09-09T16:47:52;4.37;;;1.30;;
71696;SDS011;59528;59.082;37.926;2022-09-09T16:50:18;2.83;;;0.97;;